Aviation Digital Data Service (ADDS)

Output produced by METARs form (0313 UTC 19 February 2019)
found at http://www.aviationweather.gov/metar/data/
 
NSFA 190300Z 29007KT 9999 800W DZ FEW018CB SCT020 BKN050 31/26 Q1005 RMK CB TO W
NSFA 190200Z 29008KT 9999 4500NW VCSH FEW017CB SCT020 BKN045 32/27 Q1006 RMK CB DISTANT SHOWERS / CB TO NW
NSFA 190100Z 31007KT 9999 FEW020TCU SCT045 32/27 Q1006 RMK TCU TO NW/WNW
NSFA 190000Z 31006KT 9999 FEW020TCU SCT050 32/26 Q1007 RMK TCU TO NW
NSFA 182300Z 35006KT 9999 SCT022 32/26 Q1007
NSFA 182200Z 32005KT 9999 SCT023 31/26 Q1008
NSFA 182100Z VRB03KT 9999 SCT024 31/26 Q1008 NOSIG
NSFA 182000Z VRB03KT 9999 SCT022 30/25 Q1008
NSFA 181900Z 00000KT 9999 FEW025 28/24 Q1008 NOSIG
NSFA 181800Z 00000KT 9999 FEW028 25/23 Q1008 NOSIG
NSFA 181700Z 16003KT 9999 FEW022 BKN290 24/23 Q1007
NSFA 181600Z 16003KT 9999 FEW026 SCT290 25/24 Q1008
NSFA 181500Z 16003KT 9999 FEW030 25/24 Q1008 NOSIG
NSFA 181400Z 15003KT 9999 FEW028 25/24 Q1008 NOSIG
NSFA 181300Z 19004KT 9999 FEW025 SCT300 25/24 Q1008
NSFA 181200Z 16003KT 9999 FEW025 SCT300 25/24 Q1009
NSFA 181100Z 10003KT 9999 FEW025 SCT290 26/25 Q1010
NSFA 181000Z 14003KT 9999 FEW020TCU BKN160 26/25 Q1010 RMK TCU SSE
NSFA 180900Z 16003KT 9999 FEW018CB BKN290 26/25 Q1010 RMK DISTANT LIGHTNING CB TO NE
NSFA 180800Z 16003KT 9999 FEW020TCU BKN290 26/25 Q1009 RMK TCU TO SW
NSFA 180700Z 00000KT 9999 FEW020 SCT045 BKN170 27/25 Q1008 RMK NIL
NSFA 180600Z 00000KT 9999 VCSH FEW020CB SCT070 BKN250 29/25 Q1008 CB TO E
NSFA 180500Z 00000KT 9999 VCSH FEW018CB SCT024 BKN190 30/25 Q1007 RMK CB TO E
NSFA 180400Z 00000KT 9999 FEW024 SCT060 BKN140 31/26 Q1007 RMK NIL
TAF NSFA 182326Z 1900/1924 32007KT 9999 SCT022 
     PROB30 
     TEMPO 1900/1906 5000 TSRA FEW018CB